createdAt,value
2018-11-06T00:00:46.522Z,7.85
2018-11-06T00:03:20.135Z,7.77
2018-11-06T00:05:48.391Z,7.74
2018-11-06T00:08:16.561Z,7.72
2018-11-06T00:10:44.826Z,7.66
2018-11-06T00:13:13.012Z,7.65
2018-11-06T00:15:41.294Z,7.63
2018-11-06T00:18:09.497Z,7.63
2018-11-06T00:20:37.743Z,7.54
2018-11-06T00:23:06.210Z,7.50
2018-11-06T00:25:34.491Z,7.43
2018-11-06T00:28:02.674Z,7.43
2018-11-06T00:30:30.836Z,7.37
2018-11-06T00:32:59.017Z,7.39
2018-11-06T00:35:27.273Z,7.35
2018-11-06T00:37:55.469Z,7.34
2018-11-06T00:40:23.737Z,7.26
2018-11-06T00:42:51.925Z,7.24
2018-11-06T00:45:20.425Z,7.20
2018-11-06T00:47:48.736Z,7.23
2018-11-06T00:50:16.924Z,7.22
2018-11-06T00:52:45.295Z,7.24
2018-11-06T00:55:13.498Z,7.18
2018-11-06T00:57:42.969Z,7.18
2018-11-06T01:00:13.674Z,7.18
2018-11-06T01:02:41.925Z,7.19
2018-11-06T01:05:11.162Z,7.22
2018-11-06T01:07:39.418Z,7.19
2018-11-06T01:10:08.852Z,7.20
2018-11-06T01:12:37.348Z,7.17
2018-11-06T01:15:06.570Z,7.12
2018-11-06T01:17:34.745Z,7.04
2018-11-06T01:20:02.937Z,7.10
2018-11-06T01:22:31.839Z,7.00
2018-11-06T01:25:01.426Z,6.98
2018-11-06T01:27:29.605Z,6.95
2018-11-06T01:29:57.777Z,6.92
2018-11-06T01:32:25.941Z,6.89
2018-11-06T01:34:54.241Z,6.84
2018-11-06T01:37:22.529Z,6.82
2018-11-06T01:39:50.701Z,6.80
2018-11-06T01:42:18.962Z,6.78
2018-11-06T01:44:47.145Z,6.74
2018-11-06T01:47:15.316Z,6.75
2018-11-06T01:49:43.597Z,6.74
2018-11-06T01:52:11.764Z,6.76
2018-11-06T01:54:40.021Z,6.80
2018-11-06T01:57:08.204Z,6.78
2018-11-06T01:59:36.365Z,6.75
2018-11-06T02:02:04.540Z,6.74
2018-11-06T02:04:32.720Z,6.73
2018-11-06T02:07:00.886Z,6.70
2018-11-06T02:09:29.070Z,6.71
2018-11-06T02:11:57.255Z,6.69
2018-11-06T02:14:25.512Z,6.66
2018-11-06T02:16:53.810Z,6.59
2018-11-06T02:19:22.086Z,6.60
2018-11-06T02:21:50.276Z,6.57
2018-11-06T02:24:18.525Z,6.55
2018-11-06T02:26:46.706Z,6.57
2018-11-06T02:29:14.857Z,6.59
2018-11-06T02:31:43.038Z,6.60
2018-11-06T02:34:11.237Z,6.54
2018-11-06T02:36:39.483Z,6.54
2018-11-06T02:39:08.641Z,6.57
2018-11-06T02:41:36.832Z,6.58
2018-11-06T02:44:05.001Z,6.52
2018-11-06T02:46:33.209Z,6.49
2018-11-06T02:49:01.409Z,6.40
2018-11-06T02:51:29.661Z,6.39
2018-11-06T02:53:58.169Z,6.40
2018-11-06T02:56:26.382Z,6.38
2018-11-06T02:58:54.581Z,6.34
2018-11-06T03:01:22.762Z,6.31
2018-11-06T03:03:51.197Z,6.32
2018-11-06T03:06:19.625Z,6.30
2018-11-06T03:08:47.800Z,6.29
2018-11-06T03:11:15.970Z,6.27
2018-11-06T03:13:44.164Z,6.23
2018-11-06T03:16:12.323Z,6.26
2018-11-06T03:18:40.643Z,6.21
2018-11-06T03:21:08.808Z,6.24
2018-11-06T03:23:37.042Z,6.21
2018-11-06T03:26:05.343Z,6.22
2018-11-06T03:28:33.608Z,6.24
2018-11-06T03:31:01.774Z,6.24
2018-11-06T03:33:29.978Z,6.28
2018-11-06T03:35:58.138Z,6.29
2018-11-06T03:38:26.309Z,6.31
2018-11-06T03:40:55.221Z,6.29
2018-11-06T03:43:23.465Z,6.24
2018-11-06T03:45:51.629Z,6.23
2018-11-06T03:51:10.235Z,6.31
2018-11-06T03:53:38.480Z,6.27
2018-11-06T03:56:07.532Z,6.20
2018-11-06T03:58:35.701Z,6.20
2018-11-06T04:01:03.957Z,6.26
2018-11-06T04:03:32.112Z,6.20
2018-11-06T04:06:00.280Z,6.16
2018-11-06T04:08:28.452Z,6.11
2018-11-06T04:10:56.639Z,6.06
2018-11-06T04:13:24.877Z,6.04
2018-11-06T04:15:53.275Z,6.00
2018-11-06T04:18:21.458Z,5.94
2018-11-06T04:20:49.646Z,5.93
2018-11-06T04:23:17.905Z,5.86
2018-11-06T04:25:46.060Z,5.93
2018-11-06T04:28:14.269Z,5.91
2018-11-06T04:30:42.542Z,5.85
2018-11-06T04:33:10.715Z,5.83
2018-11-06T04:35:38.883Z,5.80
2018-11-06T04:38:07.172Z,5.75
2018-11-06T04:40:35.338Z,5.72
2018-11-06T04:43:03.520Z,5.76
2018-11-06T04:45:31.794Z,5.72
2018-11-06T04:47:59.950Z,5.73
2018-11-06T04:50:28.122Z,5.72
2018-11-06T04:52:56.294Z,5.73
2018-11-06T04:55:25.094Z,5.73
2018-11-06T04:57:53.270Z,5.68
2018-11-06T05:00:21.558Z,5.63
2018-11-06T05:02:50.158Z,5.72
2018-11-06T05:05:18.350Z,5.72
2018-11-06T05:07:46.590Z,5.69
2018-11-06T05:10:15.329Z,5.75
2018-11-06T05:12:44.229Z,5.70
2018-11-06T05:15:14.471Z,5.62
2018-11-06T05:17:42.661Z,5.58
2018-11-06T05:20:13.221Z,5.55
2018-11-06T05:22:41.513Z,5.54
2018-11-06T05:25:09.989Z,5.50
2018-11-06T05:27:38.600Z,5.47
2018-11-06T05:30:07.655Z,5.46
2018-11-06T05:32:36.126Z,5.47
2018-11-06T05:35:05.345Z,5.48
2018-11-06T05:37:33.577Z,5.53
2018-11-06T05:40:13.230Z,5.47
2018-11-06T05:42:41.456Z,5.42
2018-11-06T05:45:09.624Z,5.41
2018-11-06T05:47:37.874Z,5.46
2018-11-06T05:50:06.078Z,5.46
2018-11-06T05:52:34.380Z,5.45
2018-11-06T05:55:02.633Z,5.45
2018-11-06T05:57:30.773Z,5.49
2018-11-06T06:00:05.309Z,5.51
2018-11-06T06:02:33.545Z,5.49
2018-11-06T06:05:01.860Z,5.50
2018-11-06T06:07:30.450Z,5.49
2018-11-06T06:09:58.671Z,5.52
2018-11-06T06:12:26.861Z,5.56
2018-11-06T06:14:55.235Z,5.59
2018-11-06T06:17:23.519Z,5.65
2018-11-06T06:19:52.277Z,5.69
2018-11-06T06:22:20.529Z,5.75
2018-11-06T06:24:49.529Z,5.84
2018-11-06T06:27:18.009Z,5.90
2018-11-06T06:29:46.593Z,5.99
2018-11-06T06:32:14.809Z,6.09
2018-11-06T06:34:43.147Z,6.16
2018-11-06T06:37:11.257Z,6.27
2018-11-06T06:39:39.429Z,6.36
2018-11-06T06:42:07.864Z,6.46
2018-11-06T06:44:36.422Z,6.51
2018-11-06T06:47:04.654Z,6.62
2018-11-06T06:49:32.825Z,6.69
2018-11-06T06:52:01.000Z,6.74
2018-11-06T06:54:29.383Z,6.84
2018-11-06T06:56:57.469Z,6.99
2018-11-06T06:59:25.645Z,7.09
2018-11-06T07:01:53.829Z,7.16
2018-11-06T07:04:22.098Z,7.28
2018-11-06T07:06:50.389Z,7.40
2018-11-06T07:09:18.576Z,7.44
2018-11-06T07:11:47.023Z,7.48
2018-11-06T07:14:15.229Z,7.52
2018-11-06T07:16:43.393Z,7.54
2018-11-06T07:19:11.878Z,7.64
2018-11-06T07:21:40.026Z,7.80
2018-11-06T07:24:08.163Z,7.96
2018-11-06T07:26:36.334Z,8.10
2018-11-06T07:29:04.673Z,8.22
2018-11-06T07:31:32.924Z,8.35
2018-11-06T07:34:01.093Z,8.47
2018-11-06T07:36:29.288Z,8.57
2018-11-06T07:38:57.451Z,8.65
2018-11-06T07:41:25.646Z,8.74
2018-11-06T07:43:53.864Z,8.91
2018-11-06T07:46:22.085Z,9.00
2018-11-06T07:48:50.244Z,9.14
2018-11-06T07:51:18.413Z,9.25
2018-11-06T07:53:46.865Z,9.36
2018-11-06T07:56:15.111Z,9.51
2018-11-06T07:58:43.277Z,9.63
2018-11-06T08:01:11.452Z,9.82
2018-11-06T08:03:39.614Z,9.92
2018-11-06T08:06:07.914Z,10.08
2018-11-06T08:08:36.077Z,10.21
2018-11-06T08:11:04.337Z,10.32
2018-11-06T08:13:32.509Z,10.50
2018-11-06T08:16:00.679Z,10.69
2018-11-06T08:18:29.113Z,10.80
2018-11-06T08:20:57.295Z,10.94
2018-11-06T08:23:25.453Z,11.10
2018-11-06T08:25:53.682Z,11.24
2018-11-06T08:28:21.860Z,11.38
2018-11-06T08:30:50.500Z,11.53
2018-11-06T08:33:18.501Z,11.65
2018-11-06T08:35:46.677Z,11.84
2018-11-06T08:38:14.857Z,12.06
2018-11-06T08:40:43.001Z,12.15
2018-11-06T08:43:11.252Z,12.34
2018-11-06T08:45:39.410Z,12.38
2018-11-06T08:48:07.667Z,12.59
2018-11-06T08:50:35.840Z,12.75
2018-11-06T08:53:04.006Z,12.90
2018-11-06T08:55:32.176Z,12.97
2018-11-06T08:58:00.398Z,13.09
2018-11-06T09:00:28.562Z,13.32
2018-11-06T09:02:56.738Z,13.47
2018-11-06T09:05:24.920Z,13.46
2018-11-06T09:07:53.067Z,13.72
2018-11-06T09:10:21.232Z,13.78
2018-11-06T09:12:49.642Z,13.83
2018-11-06T09:15:18.041Z,14.05
2018-11-06T09:17:46.309Z,14.18
2018-11-06T09:20:15.733Z,14.36
2018-11-06T09:22:43.953Z,14.57
2018-11-06T09:25:13.721Z,14.81
2018-11-06T09:27:42.609Z,14.91
2018-11-06T09:30:13.331Z,15.19
2018-11-06T09:32:41.548Z,15.38
2018-11-06T09:35:11.055Z,15.50
2018-11-06T09:37:39.701Z,15.73
2018-11-06T09:40:09.406Z,15.95
2018-11-06T09:42:37.876Z,16.04
2018-11-06T09:45:06.452Z,16.36
2018-11-06T09:47:34.541Z,16.54
2018-11-06T09:50:02.796Z,16.77
2018-11-06T09:52:30.962Z,17.11
2018-11-06T09:54:59.213Z,17.61
2018-11-06T09:57:27.380Z,18.25
2018-11-06T09:59:55.558Z,19.61
2018-11-06T10:02:23.706Z,21.85
2018-11-06T10:04:51.911Z,23.31
2018-11-06T10:07:20.363Z,24.69
2018-11-06T10:09:48.297Z,25.75
2018-11-06T10:12:16.549Z,27.69
2018-11-06T10:14:44.810Z,27.66
2018-11-06T10:17:12.985Z,28.16
2018-11-06T10:19:41.161Z,29.15
2018-11-06T10:22:09.441Z,29.95
2018-11-06T10:24:37.717Z,30.46
2018-11-06T10:27:05.947Z,30.68
2018-11-06T10:29:34.250Z,30.30
2018-11-06T10:32:02.482Z,30.40
2018-11-06T10:34:30.741Z,30.69
2018-11-06T10:36:59.026Z,30.52
2018-11-06T10:39:27.233Z,30.88
2018-11-06T10:41:55.434Z,29.97
2018-11-06T10:44:23.609Z,30.13
2018-11-06T10:46:51.788Z,29.86
2018-11-06T10:49:19.976Z,29.90
2018-11-06T10:51:48.202Z,30.67
2018-11-06T10:54:16.425Z,31.36
2018-11-06T10:56:44.618Z,32.80
2018-11-06T10:59:12.854Z,32.06
2018-11-06T11:01:46.404Z,32.68
2018-11-06T11:04:17.756Z,32.76
2018-11-06T11:06:46.983Z,32.32
2018-11-06T11:09:15.136Z,32.64
2018-11-06T11:11:43.339Z,33.30
2018-11-06T11:14:11.536Z,32.68
2018-11-06T11:16:39.704Z,33.49
2018-11-06T11:19:07.871Z,33.28
2018-11-06T11:21:36.077Z,34.14
2018-11-06T11:24:04.353Z,33.66
2018-11-06T11:26:32.538Z,33.90
2018-11-06T11:29:00.814Z,32.92
2018-11-06T11:31:29.005Z,33.80
2018-11-06T11:33:57.300Z,34.42
2018-11-06T11:36:25.421Z,34.48
2018-11-06T11:38:53.589Z,34.98
2018-11-06T11:41:22.093Z,34.97
2018-11-06T11:43:50.353Z,34.36
2018-11-06T11:46:18.605Z,34.14
2018-11-06T11:48:46.803Z,34.36
2018-11-06T11:51:14.972Z,34.46
2018-11-06T11:53:43.138Z,34.97
2018-11-06T11:56:11.631Z,34.54
2018-11-06T11:58:39.918Z,34.47
2018-11-06T12:01:08.480Z,33.27
2018-11-06T12:03:36.657Z,32.64
2018-11-06T12:06:04.978Z,31.77
2018-11-06T12:08:33.138Z,31.70
2018-11-06T12:11:01.389Z,31.74
2018-11-06T12:13:29.589Z,31.65
2018-11-06T12:15:57.835Z,31.93
2018-11-06T12:18:26.113Z,32.22
2018-11-06T12:20:54.197Z,32.80
2018-11-06T12:23:22.456Z,32.45
2018-11-06T12:25:50.819Z,31.36
2018-11-06T12:28:18.857Z,31.29
2018-11-06T12:30:47.088Z,30.39
2018-11-06T12:33:15.467Z,30.17
2018-11-06T12:35:43.697Z,29.99
2018-11-06T12:38:11.871Z,30.03
2018-11-06T12:40:40.025Z,30.43
2018-11-06T12:43:08.248Z,30.69
2018-11-06T12:45:36.764Z,30.92
2018-11-06T12:48:05.321Z,31.76
2018-11-06T12:50:33.529Z,32.73
2018-11-06T12:53:01.823Z,32.74
2018-11-06T12:55:30.271Z,33.42
2018-11-06T12:57:58.452Z,34.50
2018-11-06T13:00:26.703Z,33.99
2018-11-06T13:02:54.960Z,34.35
2018-11-06T13:05:23.169Z,34.29
2018-11-06T13:07:51.446Z,34.03
2018-11-06T13:10:19.636Z,33.82
2018-11-06T13:12:47.849Z,32.43
2018-11-06T13:15:17.488Z,31.41
2018-11-06T13:17:44.242Z,30.50
2018-11-06T13:20:14.537Z,30.62
2018-11-06T13:22:43.511Z,30.07
2018-11-06T13:25:11.706Z,28.70
2018-11-06T13:27:40.846Z,27.90
2018-11-06T13:30:12.732Z,27.55
2018-11-06T13:32:41.659Z,27.32
2018-11-06T13:35:10.117Z,27.88
2018-11-06T13:37:38.325Z,29.68
2018-11-06T13:40:08.839Z,30.71
2018-11-06T13:42:37.154Z,29.61
2018-11-06T13:45:07.037Z,29.86
2018-11-06T13:47:35.149Z,28.57
2018-11-06T13:50:03.321Z,29.41
2018-11-06T13:52:31.477Z,31.18
2018-11-06T13:54:59.944Z,32.17
2018-11-06T13:57:28.145Z,32.92
2018-11-06T13:59:56.399Z,32.41
2018-11-06T14:02:24.566Z,32.53
2018-11-06T14:04:52.748Z,31.93
2018-11-06T14:07:21.091Z,30.53
2018-11-06T14:09:49.264Z,29.41
2018-11-06T14:12:17.676Z,28.76
2018-11-06T14:14:46.055Z,27.89
2018-11-06T14:17:14.252Z,27.03
2018-11-06T14:19:42.450Z,26.14
2018-11-06T14:22:10.692Z,25.43
2018-11-06T14:24:38.906Z,25.03
2018-11-06T14:27:07.209Z,24.64
2018-11-06T14:29:37.440Z,24.33
2018-11-06T14:32:05.952Z,23.92
2018-11-06T14:34:34.208Z,23.87
2018-11-06T14:37:02.424Z,23.42
2018-11-06T14:39:30.803Z,23.04
2018-11-06T14:41:58.937Z,22.79
2018-11-06T14:44:27.129Z,22.53
2018-11-06T14:46:55.631Z,22.20
2018-11-06T14:49:23.856Z,21.80
2018-11-06T14:51:51.945Z,21.76
2018-11-06T14:54:20.121Z,21.38
2018-11-06T14:56:48.285Z,21.02
2018-11-06T14:59:16.626Z,21.04
2018-11-06T15:01:44.925Z,21.69
2018-11-06T15:04:13.127Z,22.15
2018-11-06T15:06:41.527Z,22.15
2018-11-06T15:09:09.948Z,21.34
2018-11-06T15:11:38.622Z,20.48
2018-11-06T15:14:07.508Z,20.02
2018-11-06T15:16:35.904Z,19.36
2018-11-06T15:19:04.092Z,18.87
2018-11-06T15:21:32.302Z,18.49
2018-11-06T15:24:00.530Z,18.16
2018-11-06T15:26:28.707Z,17.75
2018-11-06T15:28:56.910Z,17.55
2018-11-06T15:31:25.086Z,17.33
2018-11-06T15:33:53.255Z,16.92
2018-11-06T15:36:21.448Z,16.64
2018-11-06T15:38:49.721Z,16.36
2018-11-06T15:41:18.087Z,16.09
2018-11-06T15:43:46.145Z,15.85
2018-11-06T15:46:14.325Z,15.64
2018-11-06T15:48:42.658Z,15.38
2018-11-06T15:51:10.750Z,15.22
2018-11-06T15:53:38.931Z,15.01
2018-11-06T15:56:07.412Z,14.85
2018-11-06T15:58:35.581Z,14.64
2018-11-06T16:01:03.779Z,14.49
2018-11-06T16:03:32.311Z,14.34
2018-11-06T16:06:00.522Z,14.22
2018-11-06T16:08:28.799Z,14.11
2018-11-06T16:10:56.975Z,13.95
2018-11-06T16:13:25.159Z,13.83
2018-11-06T16:15:53.513Z,13.75
2018-11-06T16:18:21.713Z,13.65
2018-11-06T16:20:49.901Z,13.57
2018-11-06T16:23:18.177Z,13.47
2018-11-06T16:25:46.406Z,13.42
2018-11-06T16:28:14.626Z,13.34
2018-11-06T16:30:42.808Z,13.21
2018-11-06T16:33:10.963Z,13.19
2018-11-06T16:35:39.165Z,13.06
2018-11-06T16:38:07.438Z,13.02
2018-11-06T16:40:35.701Z,12.93
2018-11-06T16:43:03.906Z,12.88
2018-11-06T16:45:32.167Z,12.76
2018-11-06T16:48:00.361Z,12.68
2018-11-06T16:50:28.589Z,12.56
2018-11-06T16:52:56.786Z,12.46
2018-11-06T16:55:24.980Z,12.41
2018-11-06T16:57:53.137Z,12.30
2018-11-06T17:00:23.149Z,12.26
2018-11-06T17:02:51.429Z,12.15
2018-11-06T17:05:19.579Z,12.11
2018-11-06T17:07:48.137Z,12.01
2018-11-06T17:10:16.811Z,11.90
2018-11-06T17:12:45.030Z,11.87
2018-11-06T17:15:18.193Z,11.78
2018-11-06T17:17:47.319Z,11.74
2018-11-06T17:20:15.970Z,11.70
2018-11-06T17:22:44.155Z,11.65
2018-11-06T17:25:13.540Z,11.58
2018-11-06T17:27:41.740Z,11.52
2018-11-06T17:30:11.843Z,11.49
2018-11-06T17:32:40.580Z,11.44
2018-11-06T17:35:10.396Z,11.35
2018-11-06T17:37:39.233Z,11.35
2018-11-06T17:40:10.577Z,11.29
2018-11-06T17:42:38.914Z,11.23
2018-11-06T17:45:09.635Z,11.16
2018-11-06T17:47:37.954Z,11.10
2018-11-06T17:50:07.973Z,11.08
2018-11-06T17:52:36.216Z,11.06
2018-11-06T17:55:04.403Z,11.02
2018-11-06T17:57:32.550Z,10.97
2018-11-06T18:00:00.775Z,10.89
2018-11-06T18:02:28.957Z,10.82
2018-11-06T18:04:57.165Z,10.78
2018-11-06T18:07:25.333Z,10.74
2018-11-06T18:09:53.525Z,10.68
2018-11-06T18:12:22.305Z,10.62
2018-11-06T18:14:50.501Z,10.54
2018-11-06T18:17:18.816Z,10.54
2018-11-06T18:19:47.117Z,10.57
2018-11-06T18:22:15.315Z,10.53
2018-11-06T18:24:43.550Z,10.51
2018-11-06T18:27:11.741Z,10.53
2018-11-06T18:29:39.931Z,10.48
2018-11-06T18:32:08.167Z,10.45
2018-11-06T18:34:36.332Z,10.41
2018-11-06T18:37:04.505Z,10.40
2018-11-06T18:39:32.697Z,10.34
2018-11-06T18:42:00.858Z,10.28
2018-11-06T18:44:29.026Z,10.28
2018-11-06T18:46:57.222Z,10.29
2018-11-06T18:49:25.426Z,10.31
2018-11-06T18:51:53.628Z,10.32
2018-11-06T18:54:21.882Z,10.28
2018-11-06T18:56:50.205Z,10.29
2018-11-06T18:59:18.653Z,10.31
2018-11-06T19:01:46.928Z,10.35
2018-11-06T19:04:15.135Z,10.36
2018-11-06T19:06:43.369Z,10.31
2018-11-06T19:09:12.731Z,10.26
2018-11-06T19:11:41.517Z,10.20
2018-11-06T19:14:10.303Z,10.18
2018-11-06T19:16:38.581Z,10.14
2018-11-06T19:19:07.218Z,10.11
2018-11-06T19:21:35.361Z,10.06
2018-11-06T19:24:03.588Z,10.01
2018-11-06T19:26:31.767Z,9.92
2018-11-06T19:29:00.010Z,9.95
2018-11-06T19:31:28.489Z,9.93
2018-11-06T19:33:56.757Z,9.93
2018-11-06T19:36:24.963Z,9.94
2018-11-06T19:38:53.130Z,9.94
2018-11-06T19:41:21.309Z,10.02
2018-11-06T19:43:49.512Z,10.06
2018-11-06T19:46:17.721Z,10.11
2018-11-06T19:48:46.011Z,10.14
2018-11-06T19:51:15.148Z,10.14
2018-11-06T19:53:43.424Z,10.15
2018-11-06T19:56:11.558Z,10.21
2018-11-06T19:58:39.852Z,10.21
2018-11-06T20:01:08.409Z,10.17
2018-11-06T20:03:36.552Z,10.14
2018-11-06T20:06:05.173Z,10.12
2018-11-06T20:08:33.347Z,10.13
2018-11-06T20:11:01.535Z,10.13
2018-11-06T20:13:29.786Z,10.14
2018-11-06T20:15:57.981Z,10.10
2018-11-06T20:18:26.561Z,10.11
2018-11-06T20:20:55.581Z,10.08
2018-11-06T20:23:23.835Z,10.08
2018-11-06T20:25:52.003Z,10.10
2018-11-06T20:28:20.197Z,10.08
2018-11-06T20:30:48.519Z,10.12
2018-11-06T20:33:16.889Z,10.14
2018-11-06T20:35:45.076Z,10.13
2018-11-06T20:38:13.185Z,10.22
2018-11-06T20:40:41.461Z,10.21
2018-11-06T20:43:09.745Z,10.21
2018-11-06T20:45:37.885Z,10.33
2018-11-06T20:48:06.104Z,10.37
2018-11-06T20:50:34.377Z,10.36
2018-11-06T20:53:02.761Z,10.40
2018-11-06T20:55:30.943Z,10.41
2018-11-06T20:57:59.511Z,10.45
2018-11-06T21:00:28.764Z,10.51
2018-11-06T21:02:58.404Z,10.52
2018-11-06T21:05:26.659Z,10.63
2018-11-06T21:07:54.862Z,10.74
2018-11-06T21:10:25.430Z,10.70
2018-11-06T21:12:53.669Z,10.73
2018-11-06T21:15:23.039Z,10.66
2018-11-06T21:17:51.647Z,10.65
2018-11-06T21:20:19.931Z,10.66
2018-11-06T21:22:48.155Z,10.61
2018-11-06T21:25:16.465Z,10.61
2018-11-06T21:27:45.014Z,10.59
2018-11-06T21:30:15.343Z,10.55
2018-11-06T21:32:44.899Z,10.52
2018-11-06T21:35:13.101Z,10.52
2018-11-06T21:37:41.572Z,10.48
2018-11-06T21:40:13.789Z,10.43
2018-11-06T21:42:42.765Z,10.40
2018-11-06T21:45:12.187Z,10.33
2018-11-06T21:47:41.205Z,10.31
2018-11-06T21:50:10.585Z,10.27
2018-11-06T21:52:38.783Z,10.22
2018-11-06T21:55:08.130Z,10.19
2018-11-06T21:57:36.359Z,10.17
2018-11-06T22:00:05.071Z,10.10
2018-11-06T22:02:33.212Z,10.04
2018-11-06T22:05:01.496Z,10.02
2018-11-06T22:07:29.685Z,10.03
2018-11-06T22:09:57.844Z,10.12
2018-11-06T22:12:26.143Z,10.55
2018-11-06T22:14:54.360Z,10.71
2018-11-06T22:17:22.558Z,10.75
2018-11-06T22:19:50.843Z,10.45
2018-11-06T22:22:19.062Z,10.32
2018-11-06T22:24:47.190Z,10.32
2018-11-06T22:27:15.478Z,10.20
2018-11-06T22:29:43.633Z,10.06
2018-11-06T22:32:11.822Z,9.89
2018-11-06T22:34:39.999Z,9.76
2018-11-06T22:37:08.258Z,9.63
2018-11-06T22:39:36.421Z,9.58
2018-11-06T22:42:04.926Z,9.46
2018-11-06T22:44:33.184Z,9.44
2018-11-06T22:47:01.357Z,9.38
2018-11-06T22:49:29.665Z,9.30
2018-11-06T22:51:57.909Z,9.48
2018-11-06T22:54:26.421Z,9.78
2018-11-06T22:56:54.683Z,9.75
2018-11-06T22:59:22.844Z,9.63
2018-11-06T23:01:51.007Z,9.67
2018-11-06T23:04:19.304Z,9.60
2018-11-06T23:06:47.602Z,9.47
2018-11-06T23:09:15.628Z,9.35
2018-11-06T23:11:43.861Z,9.22
2018-11-06T23:14:12.039Z,9.13
2018-11-06T23:16:40.598Z,9.01
2018-11-06T23:19:08.876Z,8.90
2018-11-06T23:21:37.132Z,8.87
2018-11-06T23:24:05.510Z,8.80
2018-11-06T23:26:33.747Z,8.65
2018-11-06T23:29:01.955Z,8.55
2018-11-06T23:31:30.396Z,8.49
2018-11-06T23:33:58.614Z,8.58
2018-11-06T23:36:26.789Z,8.42
2018-11-06T23:38:54.965Z,8.22
2018-11-06T23:41:23.149Z,8.15
2018-11-06T23:43:51.375Z,8.17
2018-11-06T23:46:19.537Z,8.10
2018-11-06T23:48:47.757Z,8.05
2018-11-06T23:51:15.931Z,7.98
2018-11-06T23:53:44.133Z,7.92
2018-11-06T23:56:12.332Z,7.85
2018-11-06T23:58:40.497Z,8.17
